Time;durP1;ratioP1;P1;durP2;ratioP2;P2;SDS_P1;SDS_P2;PMS_P1;PMS_P2;Temp;Humidity;BMP_temperature;BMP_pressure;BME280_temperature;BME280_humidity;BME280_pressure;Samples;Min_cycle;Max_cycle;Signal;HPM_P1;HPM_P2
2022/07/20 00:01:36;;;;;;;8.73;4.30;;;;;;;20.37;100.00;101116.25;5031200;28;20771;-84
2022/07/20 00:04:05;;;;;;;7.85;4.20;;;;;;;20.41;100.00;101119.19;5041897;28;20429;-85
2022/07/20 00:06:33;;;;;;;6.75;3.85;;;;;;;20.35;100.00;101115.78;5036244;28;20537;-85
2022/07/20 00:11:52;;;;;;;8.23;4.50;;;;;;;20.39;100.00;101124.22;5029880;28;20427;-85
2022/07/20 00:14:22;;;;;;;8.57;4.15;;;;;;;20.39;100.00;101121.44;5023968;28;20432;-85
2022/07/20 00:16:50;;;;;;;8.27;4.60;;;;;;;20.35;100.00;101123.25;5028641;28;20419;-85
2022/07/20 00:19:23;;;;;;;7.97;4.63;;;;;;;20.35;100.00;101120.50;5030514;28;20785;-85
2022/07/20 00:21:57;;;;;;;8.82;4.10;;;;;;;20.21;100.00;101104.19;5033925;28;20422;-85
2022/07/20 00:24:25;;;;;;;8.20;4.32;;;;;;;20.29;100.00;101113.56;5031673;28;20729;-85
2022/07/20 00:26:53;;;;;;;9.00;4.28;;;;;;;20.12;100.00;101092.38;5039443;28;20805;-85
2022/07/20 00:29:28;;;;;;;7.38;4.28;;;;;;;20.21;100.00;101118.78;5038479;28;20966;-85
2022/07/20 00:31:56;;;;;;;8.43;4.38;;;;;;;20.28;100.00;101114.72;5038863;28;20431;-84
2022/07/20 00:34:24;;;;;;;7.43;4.25;;;;;;;20.27;100.00;101113.06;5033049;28;20440;-85
2022/07/20 00:36:52;;;;;;;8.50;4.22;;;;;;;20.28;100.00;101109.97;5036945;28;20407;-85
2022/07/20 00:39:25;;;;;;;6.70;4.00;;;;;;;20.25;100.00;101110.66;5029769;28;20422;-85
2022/07/20 00:41:58;;;;;;;7.38;4.20;;;;;;;20.29;100.00;101108.84;5041953;28;20421;-85
2022/07/20 00:44:33;;;;;;;8.10;4.00;;;;;;;20.18;100.00;101099.34;5032824;28;20446;-85
2022/07/20 00:47:07;;;;;;;8.50;4.18;;;;;;;20.20;100.00;101106.16;5030804;28;20412;-85
2022/07/20 00:49:35;;;;;;;8.20;4.45;;;;;;;20.09;100.00;101093.03;5024546;28;20430;-85
2022/07/20 00:52:09;;;;;;;8.77;4.18;;;;;;;20.06;100.00;101102.81;5031506;28;20961;-86
2022/07/20 00:54:38;;;;;;;7.00;4.28;;;;;;;19.99;100.00;101100.56;5046351;28;20419;-85
2022/07/20 00:57:11;;;;;;;8.20;4.30;;;;;;;19.98;100.00;101110.00;5029636;28;20415;-86
2022/07/20 00:59:46;;;;;;;8.80;4.05;;;;;;;19.92;100.00;101088.44;5031779;28;20423;-85
2022/07/20 01:02:19;;;;;;;7.67;4.47;;;;;;;19.87;100.00;101095.78;5038966;28;20428;-85
2022/07/20 01:04:47;;;;;;;7.97;4.30;;;;;;;19.83;100.00;101091.22;5045094;28;20886;-85
2022/07/20 01:07:21;;;;;;;7.85;4.47;;;;;;;19.50;100.00;101036.63;5031047;28;20434;-85
2022/07/20 01:09:54;;;;;;;7.50;4.22;;;;;;;19.83;100.00;101091.22;5029745;28;20419;-84
2022/07/20 01:12:22;;;;;;;8.40;4.40;;;;;;;19.79;100.00;101087.47;5029442;28;20427;-85
2022/07/20 01:14:55;;;;;;;8.03;4.47;;;;;;;19.81;100.00;101080.50;5029410;28;20884;-84
2022/07/20 01:17:28;;;;;;;7.65;4.53;;;;;;;19.79;100.00;101082.78;5031944;28;20431;-85
2022/07/20 01:19:57;;;;;;;7.57;4.22;;;;;;;19.78;100.00;101074.84;5016475;28;20884;-85
2022/07/20 01:22:26;;;;;;;9.15;4.50;;;;;;;19.78;100.00;101085.88;5030895;28;20411;-85
2022/07/20 01:25:00;;;;;;;8.20;4.20;;;;;;;19.67;100.00;101080.72;5031185;28;20435;-85
2022/07/20 01:27:33;;;;;;;8.90;4.40;;;;;;;19.66;100.00;101078.28;5029176;28;20423;-85
2022/07/20 01:30:01;;;;;;;8.68;4.35;;;;;;;19.60;100.00;101077.66;5028415;28;20418;-84
2022/07/20 01:32:30;;;;;;;7.97;4.60;;;;;;;19.62;100.00;101082.84;5033465;28;20415;-85
2022/07/20 01:35:03;;;;;;;9.20;4.50;;;;;;;19.52;100.00;101073.78;5034461;28;20756;-84
2022/07/20 01:37:33;;;;;;;6.80;4.20;;;;;;;19.57;100.00;101072.81;5034035;28;20407;-85
2022/07/20 01:40:01;;;;;;;7.93;4.40;;;;;;;19.60;100.00;101079.63;5032609;28;20407;-85
2022/07/20 01:42:34;;;;;;;8.48;4.38;;;;;;;19.59;100.00;101070.53;5027397;28;20415;-85
2022/07/20 01:45:03;;;;;;;7.55;4.30;;;;;;;19.37;100.00;101042.06;5041016;28;20413;-85
2022/07/20 01:47:31;;;;;;;8.10;4.32;;;;;;;19.53;100.00;101066.34;5032895;28;20426;-84
2022/07/20 01:50:00;;;;;;;7.20;4.13;;;;;;;19.49;100.00;101070.91;5032912;28;20888;-85
2022/07/20 01:52:34;;;;;;;8.35;4.28;;;;;;;19.50;100.00;101067.81;5034232;28;20761;-84
2022/07/20 01:55:04;;;;;;;7.78;4.20;;;;;;;19.35;100.00;101066.41;5036800;28;20418;-85
2022/07/20 01:57:37;;;;;;;8.20;4.57;;;;;;;19.30;100.00;101054.75;5040746;28;20781;-85
2022/07/20 02:00:06;;;;;;;8.73;4.43;;;;;;;19.45;100.00;101064.44;5043596;28;21229;-85
2022/07/20 02:02:38;;;;;;;8.50;4.10;;;;;;;19.35;100.00;101063.66;5037390;28;20414;-84
2022/07/20 02:05:12;;;;;;;7.13;4.28;;;;;;;19.34;100.00;101058.47;5036634;28;20412;-85
2022/07/20 02:07:41;;;;;;;8.15;4.38;;;;;;;19.40;100.00;101067.34;5033750;28;20410;-84
2022/07/20 02:10:16;;;;;;;8.02;4.70;;;;;;;19.36;100.00;101050.63;5013306;28;20436;-84
2022/07/20 02:12:49;;;;;;;7.97;4.38;;;;;;;19.34;100.00;101055.69;5045197;28;20415;-84
2022/07/20 02:18:04;;;;;;;6.90;4.07;;;;;;;19.28;100.00;101052.31;5033434;28;20876;-84
2022/07/20 02:20:32;;;;;;;8.00;4.40;;;;;;;19.25;100.00;101044.69;5031882;28;20430;-84
2022/07/20 02:23:03;;;;;;;7.15;4.13;;;;;;;19.20;100.00;101037.41;5032216;28;20887;-84
2022/07/20 02:25:32;;;;;;;9.43;4.55;;;;;;;19.27;100.00;101052.66;5033699;28;20414;-84
2022/07/20 02:28:06;;;;;;;7.63;4.38;;;;;;;19.25;100.00;101047.47;5031767;28;20438;-83
2022/07/20 02:30:35;;;;;;;6.93;4.10;;;;;;;19.23;100.00;101055.25;5035733;28;20756;-84
2022/07/20 02:33:04;;;;;;;8.40;4.50;;;;;;;19.21;100.00;101043.75;5033541;28;20423;-84
2022/07/20 02:35:32;;;;;;;7.68;4.32;;;;;;;19.27;100.00;101045.16;5032648;28;20430;-85
2022/07/20 02:38:02;;;;;;;7.85;4.50;;;;;;;19.17;100.00;101045.53;5032875;28;20411;-84
2022/07/20 02:40:30;;;;;;;7.60;4.50;;;;;;;19.20;100.00;101047.63;5030782;28;20426;-85
2022/07/20 02:42:58;;;;;;;7.97;4.40;;;;;;;19.15;100.00;101032.03;5028707;28;20423;-85
2022/07/20 02:45:26;;;;;;;8.05;4.38;;;;;;;19.22;100.00;101036.25;5030522;28;20422;-86
2022/07/20 02:48:03;;;;;;;8.85;4.30;;;;;;;19.18;100.00;101033.34;5027688;28;21017;-85
2022/07/20 02:50:33;;;;;;;7.87;4.30;;;;;;;19.16;100.00;101032.88;5031321;28;20456;-85
2022/07/20 02:53:09;;;;;;;7.43;4.00;;;;;;;19.15;100.00;101037.56;5031160;28;20426;-86
2022/07/20 02:55:43;;;;;;;9.68;4.05;;;;;;;19.10;100.00;101043.28;5033168;28;20430;-85
2022/07/20 02:58:17;;;;;;;8.48;4.20;;;;;;;19.10;100.00;101040.53;5012706;28;20444;-85
2022/07/20 03:00:50;;;;;;;7.28;4.53;;;;;;;19.11;100.00;101036.63;5031081;28;20419;-85
2022/07/20 03:03:23;;;;;;;8.00;4.50;;;;;;;19.11;100.00;101036.63;5031224;28;20411;-85
2022/07/20 03:05:56;;;;;;;8.23;4.60;;;;;;;19.06;100.00;101030.47;5032820;28;20427;-85
2022/07/20 03:08:31;;;;;;;7.68;4.28;;;;;;;19.06;100.00;101033.22;5026772;28;20423;-85
2022/07/20 03:10:59;;;;;;;8.60;4.13;;;;;;;19.08;100.00;101030.97;5032456;28;20422;-86
2022/07/20 03:13:32;;;;;;;7.68;4.35;;;;;;;19.09;100.00;101027.88;5032423;28;21058;-85
2022/07/20 03:16:06;;;;;;;8.27;4.75;;;;;;;18.97;100.00;101020.25;5032694;28;20442;-85
2022/07/20 03:18:40;;;;;;;7.80;4.32;;;;;;;19.07;100.00;101032.91;5030016;28;20430;-85
2022/07/20 03:21:08;;;;;;;7.65;4.32;;;;;;;19.00;100.00;101038.09;5026094;28;20847;-86
2022/07/20 03:23:42;;;;;;;8.20;4.45;;;;;;;18.96;100.00;101031.63;5031275;28;20430;-84
2022/07/20 03:26:11;;;;;;;8.20;4.70;;;;;;;18.91;100.00;101034.56;5041047;28;20415;-85
2022/07/20 03:28:39;;;;;;;8.63;4.68;;;;;;;18.93;100.00;101035.84;5030171;28;20426;-85
2022/07/20 03:31:07;;;;;;;9.63;4.75;;;;;;;18.89;100.00;101026.59;5033453;28;20414;-86
2022/07/20 03:33:41;;;;;;;8.55;4.90;;;;;;;18.85;100.00;101022.84;5038658;28;20428;-85
2022/07/20 03:36:14;;;;;;;8.75;4.50;;;;;;;18.90;100.00;101032.94;5022450;28;20432;-85
2022/07/20 03:38:49;;;;;;;9.27;4.38;;;;;;;18.80;100.00;101023.84;5024152;28;20422;-85
2022/07/20 03:41:22;;;;;;;7.20;4.07;;;;;;;18.94;100.00;101031.97;5038587;28;20425;-85
2022/07/20 03:43:50;;;;;;;8.00;4.40;;;;;;;18.89;100.00;101039.59;5033611;28;20415;-85
2022/07/20 03:46:24;;;;;;;8.32;4.80;;;;;;;18.95;100.00;101033.59;5040882;28;20436;-85
2022/07/20 03:48:52;;;;;;;8.25;4.50;;;;;;;18.89;100.00;101037.63;5029900;28;20427;-85
2022/07/20 03:51:20;;;;;;;8.30;4.47;;;;;;;18.90;100.00;101033.75;5038049;28;20962;-85
2022/07/20 03:53:50;;;;;;;8.25;4.70;;;;;;;18.89;100.00;101036.84;5031767;28;20410;-85
2022/07/20 03:56:23;;;;;;;7.32;4.30;;;;;;;18.84;100.00;101021.25;5030001;28;20831;-86
2022/07/20 03:58:56;;;;;;;7.10;4.30;;;;;;;18.89;100.00;101034.09;5029409;28;20428;-85
2022/07/20 04:01:29;;;;;;;7.68;4.60;;;;;;;18.86;100.00;101028.06;5030702;28;20431;-85
2022/07/20 04:03:57;;;;;;;8.68;4.85;;;;;;;18.91;100.00;101029.06;5025673;28;20757;-85
2022/07/20 04:06:25;;;;;;;8.67;4.60;;;;;;;18.94;100.00;101033.91;5033306;28;20423;-86
2022/07/20 04:09:00;;;;;;;7.97;4.55;;;;;;;18.90;100.00;101022.72;5031487;28;20414;-86
2022/07/20 04:11:33;;;;;;;8.18;4.55;;;;;;;18.94;100.00;101034.72;5031469;28;20414;-85
2022/07/20 04:14:07;;;;;;;8.30;4.80;;;;;;;18.92;100.00;101037.00;5030212;28;21090;-85
2022/07/20 04:16:40;;;;;;;9.75;4.50;;;;;;;18.94;100.00;101039.44;5022622;28;20427;-85
2022/07/20 04:19:13;;;;;;;8.38;4.70;;;;;;;18.95;100.00;101039.09;5028151;28;20419;-85
2022/07/20 04:21:46;;;;;;;8.05;4.60;;;;;;;19.02;100.00;101044.91;5029494;28;20899;-85
2022/07/20 04:24:21;;;;;;;9.30;4.53;;;;;;;19.11;100.00;101044.91;5029474;28;20899;-85
2022/07/20 04:26:54;;;;;;;7.75;4.53;;;;;;;19.14;100.00;101035.13;5033889;28;20449;-86
2022/07/20 04:29:22;;;;;;;8.02;4.30;;;;;;;19.14;100.00;101033.22;5026442;28;20884;-85
2022/07/20 04:31:51;;;;;;;8.70;4.37;;;;;;;19.19;100.00;101035.78;5032589;28;20424;-86
2022/07/20 04:34:27;;;;;;;9.88;4.50;;;;;;;19.26;100.00;101043.53;5037856;28;20463;-85
2022/07/20 04:36:56;;;;;;;7.40;4.30;;;;;;;19.32;100.00;101038.66;5029453;28;20430;-85
2022/07/20 04:39:32;;;;;;;7.95;4.30;;;;;;;19.39;100.00;101030.69;5029825;28;20415;-85
2022/07/20 04:42:01;;;;;;;8.10;4.25;;;;;;;19.43;100.00;101039.09;5036208;28;20448;-85
2022/07/20 04:44:35;;;;;;;8.48;4.40;;;;;;;19.32;100.00;101013.81;5032688;28;20411;-85
2022/07/20 04:47:03;;;;;;;8.00;4.50;;;;;;;19.46;100.00;101027.38;5031378;28;20909;-85
2022/07/20 04:49:36;;;;;;;9.10;4.47;;;;;;;19.51;100.00;101029.97;5034047;28;20423;-84
2022/07/20 04:52:09;;;;;;;7.28;4.38;;;;;;;19.50;100.00;101029.16;5050839;28;20429;-85
2022/07/20 04:54:39;;;;;;;7.53;4.35;;;;;;;19.57;100.00;101025.88;5031415;28;20425;-85
2022/07/20 04:57:07;;;;;;;7.90;4.93;;;;;;;19.65;100.00;101033.31;5031402;28;20421;-85
2022/07/20 04:59:40;;;;;;;7.68;4.25;;;;;;;19.70;100.00;101032.31;5030101;28;20856;-85
2022/07/20 05:02:09;;;;;;;8.40;4.32;;;;;;;19.79;100.00;101023.97;5026108;28;20429;-85
2022/07/20 05:04:42;;;;;;;8.57;4.10;;;;;;;19.94;100.00;101031.72;5031404;28;20430;-86
2022/07/20 05:07:16;;;;;;;8.60;4.60;;;;;;;20.12;100.00;101037.09;5035020;28;20510;-86
2022/07/20 05:09:45;;;;;;;8.00;4.93;;;;;;;20.24;100.00;101031.66;5049985;28;20415;-86
2022/07/20 05:12:19;;;;;;;8.70;4.80;;;;;;;20.45;100.00;101025.31;5034879;28;20430;-85
2022/07/20 05:14:47;;;;;;;7.75;4.10;;;;;;;20.80;100.00;101017.53;5041441;28;20429;-85
2022/07/20 05:17:20;;;;;;;7.55;4.43;;;;;;;22.03;100.00;101018.75;5034220;28;20431;-86
2022/07/20 05:19:53;;;;;;;7.30;4.20;;;;;;;23.32;99.33;101020.72;5039753;28;20430;-85
2022/07/20 05:22:26;;;;;;;7.50;4.30;;;;;;;24.47;88.87;101016.91;5034070;28;20788;-85
2022/07/20 05:25:01;;;;;;;7.20;4.30;;;;;;;25.55;81.57;101008.53;5028367;28;20422;-85
2022/07/20 05:27:34;;;;;;;8.30;4.32;;;;;;;25.72;78.12;101007.19;5033095;28;20411;-85
2022/07/20 05:30:08;;;;;;;7.13;4.22;;;;;;;26.60;72.05;101005.13;5029746;28;20427;-86
2022/07/20 05:32:41;;;;;;;8.60;4.60;;;;;;;27.05;70.15;101002.38;5023363;28;20422;-85
2022/07/20 05:35:14;;;;;;;6.22;3.97;;;;;;;27.18;67.56;101008.50;5031964;28;21100;-86
2022/07/20 05:37:47;;;;;;;8.10;3.92;;;;;;;27.23;68.03;101004.53;5027531;28;20432;-85
2022/07/20 05:40:22;;;;;;;8.60;4.03;;;;;;;27.35;65.50;100995.06;5028885;28;20791;-86
2022/07/20 05:42:50;;;;;;;8.18;4.22;;;;;;;27.33;67.47;100999.03;5031588;28;20418;-85
2022/07/20 05:45:18;;;;;;;6.55;3.85;;;;;;;26.76;71.35;101013.28;5029100;28;20425;-85
2022/07/20 05:47:52;;;;;;;7.82;3.92;;;;;;;25.94;75.88;101011.06;5042270;28;20423;-86
2022/07/20 05:50:25;;;;;;;8.00;4.28;;;;;;;25.23;82.19;101016.34;5032254;28;20415;-86
2022/07/20 05:52:58;;;;;;;8.52;3.90;;;;;;;24.73;86.05;101017.06;5032991;28;20462;-85
2022/07/20 05:55:33;;;;;;;8.82;4.28;;;;;;;24.48;89.61;101015.75;5030714;28;20536;-85
2022/07/20 05:58:07;;;;;;;6.68;3.90;;;;;;;24.22;90.04;101012.47;5035172;28;20435;-86
2022/07/20 06:00:41;;;;;;;7.32;3.90;;;;;;;23.84;93.44;101010.41;5031694;28;20843;-85
2022/07/20 06:03:14;;;;;;;8.07;4.22;;;;;;;23.59;97.45;101005.88;5030625;28;20522;-85
2022/07/20 06:05:42;;;;;;;7.22;4.20;;;;;;;23.41;98.70;100991.59;5033035;28;20533;-85
2022/07/20 06:08:10;;;;;;;7.35;4.30;;;;;;;23.49;96.38;101003.69;5028517;28;20443;-85
2022/07/20 06:10:40;;;;;;;8.10;4.30;;;;;;;23.38;98.04;101006.19;5030781;28;20427;-84
2022/07/20 06:13:13;;;;;;;6.95;4.10;;;;;;;23.41;96.72;101013.00;5043646;28;21068;-84
2022/07/20 06:15:46;;;;;;;8.27;4.20;;;;;;;23.55;95.79;101013.34;5028029;28;20415;-86
2022/07/20 06:18:19;;;;;;;6.93;4.00;;;;;;;23.65;97.22;101019.50;5028956;28;20444;-85
2022/07/20 06:20:53;;;;;;;7.57;3.87;;;;;;;23.69;95.86;101012.06;5030475;28;21021;-86
2022/07/20 06:23:27;;;;;;;6.73;3.93;;;;;;;23.75;94.87;101016.16;5030797;28;20431;-83
2022/07/20 06:26:01;;;;;;;8.30;3.90;;;;;;;23.87;98.87;101013.25;5032675;28;20768;-85
2022/07/20 06:28:35;;;;;;;6.88;4.10;;;;;;;23.98;95.35;101007.19;5031319;28;20442;-84
2022/07/20 06:31:08;;;;;;;9.73;4.00;;;;;;;24.07;92.53;101014.13;5032081;28;20528;-85
2022/07/20 06:33:36;;;;;;;7.32;4.10;;;;;;;24.07;93.36;101008.59;5027388;28;20442;-84
2022/07/20 06:36:05;;;;;;;7.55;4.07;;;;;;;24.27;95.60;101016.94;5030469;28;20434;-83
2022/07/20 06:38:34;;;;;;;7.05;4.40;;;;;;;24.27;93.45;101011.38;5032118;28;20431;-85
2022/07/20 06:41:09;;;;;;;6.65;3.90;;;;;;;24.51;88.94;101021.38;5031318;28;20435;-85
2022/07/20 06:43:37;;;;;;;7.20;4.13;;;;;;;24.54;90.60;101006.75;5021388;28;20923;-85
2022/07/20 06:46:11;;;;;;;6.65;4.00;;;;;;;24.44;91.78;100996.19;5030147;28;20435;-90
2022/07/20 06:48:40;;;;;;;6.97;3.95;;;;;;;24.61;87.67;101022.81;5029200;28;20427;-83
2022/07/20 06:51:08;;;;;;;8.10;4.28;;;;;;;24.69;92.08;101018.16;5027226;28;20434;-85
2022/07/20 06:53:36;;;;;;;7.57;4.10;;;;;;;24.82;87.28;101018.78;5040119;28;20815;-83
2022/07/20 06:56:05;;;;;;;8.63;4.10;;;;;;;25.02;82.91;101022.34;5026638;28;20428;-82
2022/07/20 06:58:40;;;;;;;6.70;3.80;;;;;;;25.32;82.55;101011.31;5033447;28;20429;-83
2022/07/20 07:01:08;;;;;;;6.47;3.65;;;;;;;25.30;88.48;101013.69;5029746;28;20439;-84
2022/07/20 07:03:36;;;;;;;7.47;3.80;;;;;;;25.28;88.22;101016.03;5026096;28;20440;-88
2022/07/20 07:06:05;;;;;;;7.23;3.83;;;;;;;25.30;85.66;101016.47;5032569;28;20448;-88
2022/07/20 07:08:33;;;;;;;9.07;5.85;;;;;;;25.44;86.96;101018.72;5040285;28;20426;-87
2022/07/20 07:11:06;;;;;;;6.85;3.88;;;;;;;25.42;82.80;101024.63;5032729;28;20435;-86
2022/07/20 07:13:41;;;;;;;6.35;4.00;;;;;;;25.73;77.86;101013.56;5022442;28;20423;-87
2022/07/20 07:16:14;;;;;;;6.50;3.92;;;;;;;25.63;80.44;101023.38;4982470;28;20517;-86
2022/07/20 07:18:47;;;;;;;6.78;3.95;;;;;;;25.75;85.29;101020.34;4999875;28;21094;-87
2022/07/20 07:21:21;;;;;;;6.70;4.00;;;;;;;25.77;84.18;101011.63;5001763;28;20428;-86
2022/07/20 07:23:54;;;;;;;7.30;3.85;;;;;;;25.96;81.68;101010.69;4994289;28;21199;-85
2022/07/20 07:26:27;;;;;;;5.97;3.58;;;;;;;26.09;80.87;101017.69;4989125;28;20436;-85
2022/07/20 07:28:57;;;;;;;6.13;3.75;;;;;;;26.09;78.31;101006.53;4985668;28;20432;-84
2022/07/20 07:31:30;;;;;;;6.80;3.67;;;;;;;26.35;72.40;101018.00;4989425;28;20437;-85
2022/07/20 07:34:03;;;;;;;6.20;3.78;;;;;;;26.52;75.17;101008.22;4981979;28;20436;-85
2022/07/20 07:36:37;;;;;;;6.93;4.00;;;;;;;26.60;76.90;101015.50;4981909;28;20441;-85
2022/07/20 07:39:10;;;;;;;6.07;3.57;;;;;;;26.88;70.29;101019.81;4981820;28;20924;-86
2022/07/20 07:41:38;;;;;;;6.80;3.67;;;;;;;26.80;70.86;101000.16;4985624;28;21752;-85
2022/07/20 07:44:13;;;;;;;6.20;3.50;;;;;;;27.08;74.28;101018.41;4992435;28;21267;-84
2022/07/20 07:46:46;;;;;;;7.17;4.33;;;;;;;27.07;72.87;101015.97;4982654;28;20429;-85
2022/07/20 07:49:20;;;;;;;6.37;3.63;;;;;;;27.06;75.37;101011.59;4987376;28;21183;-85
2022/07/20 07:51:53;;;;;;;7.32;3.80;;;;;;;27.15;74.40;101018.44;4978994;28;20991;-86
2022/07/20 07:54:26;;;;;;;7.20;3.97;;;;;;;27.28;71.03;101007.78;4983640;28;20428;-84
2022/07/20 07:56:55;;;;;;;7.38;3.95;;;;;;;27.24;68.20;101001.34;4981666;28;20923;-84
2022/07/20 07:59:30;;;;;;;6.55;3.70;;;;;;;27.31;69.90;101009.00;4991938;28;20428;-85
2022/07/20 08:02:04;;;;;;;6.47;3.60;;;;;;;27.42;63.02;101012.69;4978109;28;20429;-84
2022/07/20 08:04:37;;;;;;;7.03;3.90;;;;;;;27.57;67.82;101015.63;4980505;28;20429;-85
2022/07/20 08:07:05;;;;;;;6.22;3.60;;;;;;;27.64;66.29;101013.66;4981848;28;21779;-85
2022/07/20 08:09:34;;;;;;;7.57;3.70;;;;;;;27.74;70.41;101005.72;4980172;28;20452;-86
2022/07/20 08:12:07;;;;;;;6.30;3.70;;;;;;;27.93;65.62;101004.63;4990010;28;20449;-85
2022/07/20 08:14:49;;;;;;;5.60;3.45;;;;;;;28.12;63.26;101006.34;4986802;28;20436;-85
2022/07/20 08:17:19;;;;;;;8.23;4.22;;;;;;;28.31;65.96;100988.41;4952057;28;20998;-88
2022/07/20 08:19:52;;;;;;;6.60;3.70;;;;;;;28.49;63.92;101008.06;4972948;28;20440;-88
2022/07/20 08:22:20;;;;;;;5.55;3.67;;;;;;;28.64;58.26;101003.34;4979784;28;21389;-85
2022/07/20 08:24:49;;;;;;;5.82;3.60;;;;;;;28.66;67.82;101003.75;4973875;28;20929;-87
2022/07/20 08:27:17;;;;;;;5.57;3.42;;;;;;;28.57;63.78;100992.88;4974400;28;20444;-86
2022/07/20 08:29:47;;;;;;;6.37;3.60;;;;;;;28.60;62.17;100997.72;4982818;28;20417;-87
2022/07/20 08:32:16;;;;;;;6.88;3.83;;;;;;;28.78;61.22;100988.56;4985776;28;20995;-88
2022/07/20 08:34:49;;;;;;;6.20;3.42;;;;;;;28.82;61.88;100995.78;4982552;28;21091;-86
2022/07/20 08:37:22;;;;;;;7.22;3.60;;;;;;;29.00;63.74;100992.19;4990218;28;20433;-87
2022/07/20 08:39:56;;;;;;;6.20;3.75;;;;;;;29.08;62.03;100990.19;4985058;28;20437;-87
2022/07/20 08:42:29;;;;;;;5.65;3.60;;;;;;;29.27;55.72;100981.41;4988194;28;20444;-87
2022/07/20 08:44:59;;;;;;;5.68;3.50;;;;;;;29.54;55.31;100985.75;4998021;28;20425;-87
2022/07/20 08:47:30;;;;;;;6.65;3.38;;;;;;;29.65;55.58;100984.53;4995434;28;20432;-86
2022/07/20 08:50:10;;;;;;;5.20;3.28;;;;;;;29.73;59.15;100990.13;4989923;28;20432;-87
2022/07/20 08:52:38;;;;;;;6.30;3.20;;;;;;;29.73;53.93;100985.31;4985802;28;20439;-87
2022/07/20 08:55:11;;;;;;;6.38;3.28;;;;;;;29.82;56.94;100996.91;4995054;28;20432;-87
2022/07/20 08:57:40;;;;;;;6.18;3.60;;;;;;;29.93;54.87;100982.88;4995395;28;20431;-89
2022/07/20 09:00:16;;;;;;;6.78;3.45;;;;;;;29.90;51.16;100972.47;4989041;28;20436;-88
2022/07/20 09:02:53;;;;;;;5.22;3.17;;;;;;;30.17;50.90;100989.59;4989929;28;20436;-89
2022/07/20 09:05:23;;;;;;;7.20;3.22;;;;;;;30.28;50.52;100992.34;4988773;28;20455;-87
2022/07/20 09:07:58;;;;;;;5.93;3.25;;;;;;;30.43;46.07;100986.66;4982785;28;20433;-87
2022/07/20 09:10:33;;;;;;;6.40;3.25;;;;;;;30.56;44.63;100984.19;4990724;28;20476;-87
2022/07/20 09:13:08;;;;;;;5.68;3.50;;;;;;;30.57;45.93;100983.78;4993073;28;20582;-87
2022/07/20 09:15:45;;;;;;;7.13;3.55;;;;;;;30.55;51.13;100960.13;4966607;28;20896;-87
2022/07/20 09:18:16;;;;;;;6.30;3.30;;;;;;;30.79;48.88;100981.63;4996900;28;20440;-87
2022/07/20 09:20:51;;;;;;;6.13;3.20;;;;;;;30.98;45.12;100968.25;4994194;28;20432;-88
2022/07/20 09:23:22;;;;;;;5.72;3.20;;;;;;;30.87;47.73;100946.66;4991759;28;20906;-88
2022/07/20 09:25:59;;;;;;;6.40;3.30;;;;;;;31.09;43.83;100968.16;4996385;28;20417;-87
2022/07/20 09:28:36;;;;;;;6.97;3.72;;;;;;;31.18;44.84;100962.88;4989678;28;21115;-87
2022/07/20 09:31:13;;;;;;;7.75;3.05;;;;;;;31.29;49.06;100959.97;4997718;28;21214;-86
2022/07/20 09:33:49;;;;;;;5.50;3.45;;;;;;;31.41;45.32;100967.88;4992820;28;20447;-87
2022/07/20 09:36:24;;;;;;;5.70;3.35;;;;;;;31.48;41.64;100964.97;4993945;28;20444;-87
2022/07/20 09:38:52;;;;;;;6.03;3.10;;;;;;;31.73;43.15;100971.59;4998255;28;20436;-88
2022/07/20 09:41:28;;;;;;;5.80;3.47;;;;;;;31.78;41.37;100960.66;4997683;28;20437;-87
2022/07/20 09:44:03;;;;;;;6.38;3.50;;;;;;;31.64;46.28;100955.19;4994795;28;20433;-86
2022/07/20 09:46:39;;;;;;;5.32;3.50;;;;;;;31.84;48.54;100970.22;5002813;28;20421;-87
2022/07/20 09:49:09;;;;;;;5.85;3.35;;;;;;;32.03;40.13;100962.38;4993756;28;20994;-86
2022/07/20 09:51:39;;;;;;;8.55;3.30;;;;;;;31.98;42.64;100963.63;4993007;28;20828;-86
2022/07/20 09:54:14;;;;;;;6.27;3.23;;;;;;;32.08;46.09;100973.16;4997854;28;20428;-87
2022/07/20 09:56:50;;;;;;;5.28;3.38;;;;;;;32.15;43.22;100966.66;4992951;28;20420;-88
2022/07/20 09:59:23;;;;;;;6.93;3.37;;;;;;;32.20;45.06;100952.13;4993816;28;20431;-86
2022/07/20 10:01:55;;;;;;;5.63;3.65;;;;;;;32.38;42.53;100969.53;4989766;28;22014;-86
2022/07/20 10:04:28;;;;;;;6.65;3.75;;;;;;;32.63;38.80;100961.97;4990518;28;20436;-86
2022/07/20 10:06:56;;;;;;;5.82;3.38;;;;;;;32.51;43.32;100957.69;4992040;28;20437;-86
2022/07/20 10:09:31;;;;;;;6.05;3.20;;;;;;;32.63;33.63;100959.94;4993648;28;20439;-85
2022/07/20 10:12:05;;;;;;;6.53;3.15;;;;;;;32.82;36.44;100966.13;4993715;28;21242;-88
2022/07/20 10:14:41;;;;;;;6.13;3.33;;;;;;;32.91;34.85;100965.56;4992417;28;20443;-88
2022/07/20 10:17:16;;;;;;;7.40;3.17;;;;;;;33.07;37.81;100962.88;4960206;28;20864;-88
2022/07/20 10:19:46;;;;;;;4.80;2.88;;;;;;;33.09;37.05;100962.44;4992663;28;20440;-88
2022/07/20 10:22:16;;;;;;;6.28;2.90;;;;;;;33.20;35.21;100968.69;4991711;28;20763;-89
2022/07/20 10:25:17;;;;;;;6.13;3.13;;;;;;;33.13;35.47;100966.00;4990704;28;21277;-88
2022/07/20 10:27:46;;;;;;;5.63;2.78;;;;;;;33.26;34.78;100954.94;4994919;28;20429;-87
2022/07/20 10:30:20;;;;;;;4.80;3.03;;;;;;;33.49;36.52;100962.53;4994219;28;20963;-89
2022/07/20 10:32:57;;;;;;;5.45;3.00;;;;;;;33.60;35.53;100953.88;4995152;28;20436;-86
2022/07/20 10:35:31;;;;;;;6.68;3.00;;;;;;;33.71;35.96;100958.09;4990987;28;20459;-87
2022/07/20 10:38:05;;;;;;;5.18;2.75;;;;;;;33.74;32.59;100945.13;4991094;28;20436;-88
2022/07/20 10:41:31;;;;;;;4.78;2.83;;;;;;;33.79;34.04;100955.13;5001359;28;20448;-88
2022/07/20 10:43:33;;;;;;;5.53;2.60;;;;;;;33.87;31.86;100950.94;4992532;28;21281;-86
2022/07/20 10:46:32;;;;;;;6.55;2.90;;;;;;;34.03;31.71;100953.81;4986517;28;21159;-87
2022/07/20 10:49:00;;;;;;;7.10;3.17;;;;;;;34.00;32.14;100965.16;4990453;28;20980;-88
2022/07/20 10:51:34;;;;;;;5.50;3.00;;;;;;;34.07;34.63;100965.81;4996737;28;20443;-88
2022/07/20 10:54:34;;;;;;;5.67;3.03;;;;;;;34.09;32.77;100958.97;4991743;28;20451;-88
2022/07/20 10:57:09;;;;;;;5.25;2.85;;;;;;;34.18;34.09;100970.44;4988184;28;20432;-86
2022/07/20 10:59:42;;;;;;;6.15;2.80;;;;;;;34.18;30.80;100961.97;4992298;28;20425;-86
2022/07/20 11:02:17;;;;;;;5.63;2.88;;;;;;;34.26;32.46;100956.97;4978840;28;20452;-86
2022/07/20 11:04:50;;;;;;;6.63;2.90;;;;;;;34.32;31.42;100950.38;4995819;28;20960;-85
2022/07/20 11:07:28;;;;;;;5.57;3.10;;;;;;;34.37;30.48;100947.00;4984766;28;22054;-87
2022/07/20 11:10:18;;;;;;;5.63;2.83;;;;;;;34.30;31.75;100940.75;4986591;28;20440;-86
2022/07/20 11:12:59;;;;;;;4.40;2.70;;;;;;;34.35;31.87;100941.03;4994127;28;20471;-89
2022/07/20 11:15:43;;;;;;;4.40;2.58;;;;;;;34.33;34.07;100937.81;4962641;28;20440;-87
2022/07/20 11:18:18;;;;;;;5.40;2.80;;;;;;;34.44;29.65;100934.75;4989840;28;20425;-87
2022/07/20 11:20:53;;;;;;;6.97;2.70;;;;;;;34.65;34.09;100935.47;4988104;28;21017;-87
2022/07/20 11:23:23;;;;;;;4.78;2.70;;;;;;;34.66;31.89;100934.25;4988459;28;20444;-85
2022/07/20 11:25:53;;;;;;;5.27;2.90;;;;;;;34.73;28.01;100923.56;4991815;28;21204;-90
2022/07/20 11:28:27;;;;;;;5.28;2.63;;;;;;;34.83;32.63;100926.56;4986387;28;20433;-87
2022/07/20 11:31:02;;;;;;;5.28;2.72;;;;;;;34.90;30.21;100929.25;4990348;28;20421;-87
2022/07/20 11:33:32;;;;;;;6.75;2.47;;;;;;;34.90;28.82;100926.41;4999013;28;22310;-88
2022/07/20 11:36:08;;;;;;;4.80;2.80;;;;;;;35.03;31.86;100930.09;4988603;28;20516;-87
2022/07/20 11:38:43;;;;;;;5.82;2.72;;;;;;;35.10;29.93;100908.53;4984870;28;20440;-88
2022/07/20 11:41:14;;;;;;;7.45;2.92;;;;;;;35.22;29.01;100905.75;4988208;28;20449;-86
2022/07/20 11:43:45;;;;;;;4.50;2.60;;;;;;;35.43;27.74;100914.91;4990474;28;21098;-86
2022/07/20 11:46:22;;;;;;;5.28;2.85;;;;;;;35.35;28.41;100910.69;5001577;28;20429;-88
2022/07/20 11:48:56;;;;;;;5.25;2.60;;;;;;;35.41;28.14;100908.88;4987134;28;20802;-86
2022/07/20 11:51:31;;;;;;;5.20;2.80;;;;;;;35.59;30.10;100914.84;4990957;28;20435;-87